Time;durP1;ratioP1;P1;durP2;ratioP2;P2;SDS_P1;SDS_P2;PMS_P1;PMS_P2;Temp;Humidity;BMP_temperature;BMP_pressure;BME280_temperature;BME280_humidity;BME280_pressure;Samples;Min_cycle;Max_cycle;Signal;HPM_P1;HPM_P2
2022/01/30 00:00:12;;;;;;;3.33;0.90;;;;;;;-1.49;67.53;98715.79;1833577;75;21464;-52
2022/01/30 00:02:41;;;;;;;2.27;0.90;;;;;;;-1.49;67.54;98714.02;1833964;75;21349;-52
2022/01/30 00:05:08;;;;;;;2.00;0.90;;;;;;;-1.49;67.59;98703.91;1831091;75;21450;-52
2022/01/30 00:07:34;;;;;;;5.93;1.00;;;;;;;-1.48;67.68;98692.47;1835178;75;21084;-52
2022/01/30 00:10:01;;;;;;;3.43;0.93;;;;;;;-1.47;67.68;98688.48;1830531;75;21069;-53
2022/01/30 00:12:42;;;;;;;3.37;1.57;;;;;;;-1.47;67.77;98692.89;1834013;75;21088;-53
2022/01/30 00:14:59;;;;;;;3.40;0.80;;;;;;;-1.46;67.81;98684.08;1832263;75;20890;-52
2022/01/30 00:17:33;;;;;;;1.40;0.80;;;;;;;-1.44;67.83;98690.17;1836794;75;20875;-53
2022/01/30 00:20:01;;;;;;;4.40;1.43;;;;;;;-1.43;67.84;98669.04;1838638;75;20903;-53
2022/01/30 00:25:04;;;;;;;4.60;0.80;;;;;;;-1.39;67.80;98657.99;1836981;75;21090;-52
2022/01/30 00:27:31;;;;;;;4.93;1.20;;;;;;;-1.40;67.83;98641.73;1835969;75;20882;-52
2022/01/30 00:29:56;;;;;;;2.47;1.20;;;;;;;-1.39;67.83;98631.59;1829996;77;21368;-52
2022/01/30 00:32:22;;;;;;;3.20;1.10;;;;;;;-1.39;67.88;98621.04;1829449;77;21502;-52
2022/01/30 00:34:49;;;;;;;3.77;1.20;;;;;;;-1.39;67.89;98614.44;1833426;77;20929;-52
2022/01/30 00:37:16;;;;;;;3.53;0.97;;;;;;;-1.39;67.95;98607.84;1832663;77;21103;-50
2022/01/30 00:39:42;;;;;;;5.10;0.97;;;;;;;-1.39;67.95;98590.68;1833162;76;20843;-50
2022/01/30 00:42:09;;;;;;;3.13;0.90;;;;;;;-1.39;67.90;98583.64;1829798;77;20898;-49
2022/01/30 00:44:36;;;;;;;2.37;1.00;;;;;;;-1.39;67.93;98578.36;1831446;77;21217;-49
2022/01/30 00:47:04;;;;;;;2.17;0.90;;;;;;;-1.40;67.85;98575.73;1833050;77;21353;-52
2022/01/30 00:49:31;;;;;;;2.97;0.93;;;;;;;-1.40;67.90;98567.37;1828966;77;21131;-51
2022/01/30 00:51:57;;;;;;;4.70;1.07;;;;;;;-1.41;67.92;98560.35;1831422;77;21340;-52
2022/01/30 00:54:24;;;;;;;3.23;0.80;;;;;;;-1.40;67.97;98551.98;1829717;77;21349;-49
2022/01/30 00:56:50;;;;;;;2.83;1.00;;;;;;;-1.41;67.99;98539.69;1832445;77;20886;-50
2022/01/30 00:59:16;;;;;;;2.83;0.90;;;;;;;-1.40;67.95;98532.19;1828775;77;20910;-49
2022/01/30 01:01:43;;;;;;;2.63;0.80;;;;;;;-1.40;68.02;98517.22;1832620;77;21090;-50
2022/01/30 01:04:09;;;;;;;6.30;0.80;;;;;;;-1.37;67.92;98513.66;1828273;77;21354;-50
2022/01/30 01:06:37;;;;;;;4.57;1.03;;;;;;;-1.37;68.00;98498.70;1828351;77;22377;-50
2022/01/30 01:09:05;;;;;;;3.40;0.80;;;;;;;-1.35;68.01;98488.95;1833172;77;21322;-49
2022/01/30 01:12:08;;;;;;;1.70;0.60;;;;;;;-1.32;67.91;98478.79;1828703;77;21071;-49
2022/01/30 01:20:54;;;;;;;2.17;0.67;;;;;;;-1.32;67.79;98461.63;1827016;77;23348;-51
2022/01/30 01:24:56;;;;;;;1.90;0.80;;;;;;;-1.30;67.62;98437.39;1810246;77;21397;-51
2022/01/30 01:27:23;;;;;;;4.80;0.70;;;;;;;-1.30;67.54;98432.11;1828761;77;21472;-51
2022/01/30 01:29:49;;;;;;;1.80;0.60;;;;;;;-1.29;67.57;98424.62;1833830;75;21412;-52
2022/01/30 01:32:16;;;;;;;3.60;0.60;;;;;;;-1.26;67.46;98421.44;1835791;75;20926;-52
2022/01/30 01:34:42;;;;;;;2.73;0.60;;;;;;;-1.22;67.36;98422.25;1839463;75;21036;-51
2022/01/30 01:37:11;;;;;;;1.80;0.67;;;;;;;-1.22;67.14;98413.88;1833962;75;21085;-52
2022/01/30 01:39:37;;;;;;;3.07;0.70;;;;;;;-1.21;67.15;98401.55;1832952;75;22650;-51
2022/01/30 01:42:04;;;;;;;4.40;0.60;;;;;;;-1.20;67.05;98399.33;1833258;75;21025;-50
2022/01/30 01:44:40;;;;;;;1.30;0.60;;;;;;;-1.19;67.05;98386.06;1833833;75;20930;-51
2022/01/30 01:47:01;;;;;;;1.73;0.50;;;;;;;-1.18;66.89;98389.58;1835361;75;21099;-51
2022/01/30 01:49:30;;;;;;;4.70;0.60;;;;;;;-1.17;66.79;98388.23;1837358;75;21064;-51
2022/01/30 01:52:18;;;;;;;2.00;0.60;;;;;;;-1.17;66.72;98382.08;1830572;75;21732;-51
2022/01/30 01:54:29;;;;;;;8.03;0.60;;;;;;;-1.15;66.70;98379.83;1830100;75;21041;-51
2022/01/30 01:56:55;;;;;;;1.43;0.70;;;;;;;-1.15;66.57;98371.03;1833840;75;21040;-51
2022/01/30 01:59:26;;;;;;;3.63;0.70;;;;;;;-1.12;66.61;98373.62;1830558;75;21037;-51
2022/01/30 02:02:07;;;;;;;2.37;0.60;;;;;;;-1.12;66.86;98372.30;1832225;75;21098;-51
2022/01/30 02:04:34;;;;;;;1.97;0.57;;;;;;;-1.13;67.13;98359.12;1842476;75;21491;-51
2022/01/30 02:07:36;;;;;;;2.73;0.60;;;;;;;-1.13;67.39;98366.59;1832023;75;21029;-52
2022/01/30 02:09:36;;;;;;;2.00;0.60;;;;;;;-1.14;67.67;98364.86;1828791;75;22283;-51
2022/01/30 02:12:04;;;;;;;2.50;0.53;;;;;;;-1.13;68.13;98359.99;1812397;75;22305;-50
2022/01/30 02:14:46;;;;;;;3.30;0.40;;;;;;;-1.17;68.47;98352.58;1837512;75;21064;-51
2022/01/30 02:25:38;;;;;;;1.60;0.60;;;;;;;-1.39;70.78;98302.53;1779521;78;21031;-50
2022/01/30 02:27:49;;;;;;;1.33;0.60;;;;;;;-1.45;71.41;98287.30;1794519;78;20969;-50
2022/01/30 02:30:19;;;;;;;4.40;0.90;;;;;;;-1.50;72.00;98279.47;1803598;77;22318;-50
2022/01/30 02:32:47;;;;;;;4.30;1.23;;;;;;;-1.57;72.54;98270.84;1788311;78;20919;-50
2022/01/30 02:35:13;;;;;;;3.83;0.67;;;;;;;-1.62;73.00;98258.22;1804660;78;21091;-53
2022/01/30 02:37:40;;;;;;;2.83;0.50;;;;;;;-1.69;73.46;98242.09;1781352;78;21037;-50
2022/01/30 02:40:11;;;;;;;3.23;0.70;;;;;;;-1.71;73.91;98245.69;1800703;77;21116;-52
2022/01/30 02:42:40;;;;;;;1.37;0.53;;;;;;;-1.73;74.31;98238.25;1807004;78;21866;-50
2022/01/30 02:45:08;;;;;;;2.40;0.40;;;;;;;-1.76;74.62;98226.00;1788417;78;20923;-50
2022/01/30 02:50:21;;;;;;;1.60;0.47;;;;;;;-1.81;75.64;98221.73;1799878;78;20937;-49
2022/01/30 02:52:55;;;;;;;1.60;0.47;;;;;;;-1.83;76.06;98201.13;1807231;77;22113;-49
2022/01/30 02:55:13;;;;;;;1.23;0.50;;;;;;;-1.89;76.41;98186.31;1799335;77;21087;-49
2022/01/30 02:57:40;;;;;;;0.93;0.47;;;;;;;-1.92;76.70;98175.83;1802645;77;21074;-50
2022/01/30 03:00:09;;;;;;;1.27;0.50;;;;;;;-1.93;77.01;98165.73;1803198;77;21618;-49
2022/01/30 03:02:36;;;;;;;0.90;0.40;;;;;;;-1.95;77.30;98152.16;1801012;78;21076;-49
2022/01/30 03:05:03;;;;;;;1.10;0.50;;;;;;;-1.97;77.66;98145.62;1804034;77;21054;-48
2022/01/30 03:07:29;;;;;;;0.73;0.30;;;;;;;-1.98;77.94;98148.30;1804709;77;21115;-50
2022/01/30 03:09:58;;;;;;;1.30;0.40;;;;;;;-1.99;78.29;98133.37;1804713;78;21056;-50
2022/01/30 03:12:25;;;;;;;0.93;0.33;;;;;;;-2.01;78.57;98124.63;1809074;77;21598;-50
2022/01/30 03:14:51;;;;;;;1.17;0.40;;;;;;;-2.04;78.83;98122.92;1800745;77;21068;-51
2022/01/30 03:17:19;;;;;;;5.37;0.40;;;;;;;-2.02;79.14;98113.66;1803124;77;21112;-50
2022/01/30 03:19:46;;;;;;;1.70;0.50;;;;;;;-2.02;79.35;98117.16;1802036;78;21127;-50
2022/01/30 03:22:12;;;;;;;3.17;0.40;;;;;;;-2.02;79.48;98103.11;1781498;78;21797;-50
2022/01/30 03:24:39;;;;;;;0.90;0.40;;;;;;;-1.99;79.66;98091.19;1784770;78;20942;-50
2022/01/30 03:27:12;;;;;;;0.90;0.40;;;;;;;-1.99;79.85;98099.97;1794896;77;21058;-52
2022/01/30 03:29:49;;;;;;;0.93;0.40;;;;;;;-1.95;80.10;98089.73;1772173;78;21052;-51
2022/01/30 03:32:12;;;;;;;1.10;0.50;;;;;;;-1.94;80.23;98076.10;1770802;78;21140;-50
2022/01/30 03:34:39;;;;;;;0.63;0.40;;;;;;;-1.95;80.50;98066.01;1773153;78;21539;-50
2022/01/30 03:37:06;;;;;;;2.40;0.50;;;;;;;-1.95;80.84;98053.27;1791481;77;21662;-50
2022/01/30 03:39:33;;;;;;;6.27;0.40;;;;;;;-1.97;81.06;98057.74;1793261;77;21124;-50
2022/01/30 03:41:59;;;;;;;1.73;0.40;;;;;;;-1.97;81.33;98043.24;1792406;77;21062;-49
2022/01/30 03:44:26;;;;;;;0.80;0.50;;;;;;;-1.97;81.62;98036.65;1796315;77;21106;-50
2022/01/30 03:46:53;;;;;;;2.37;0.80;;;;;;;-1.98;81.92;98042.37;1796182;78;22351;-50
2022/01/30 03:49:19;;;;;;;3.10;0.70;;;;;;;-1.98;82.13;98030.96;1774521;78;21033;-50
2022/01/30 03:51:47;;;;;;;1.03;0.70;;;;;;;-2.00;82.35;98020.45;1792205;77;22402;-50
2022/01/30 03:54:15;;;;;;;1.57;0.83;;;;;;;-2.01;82.58;98014.76;1792833;77;21163;-51
2022/01/30 03:56:42;;;;;;;1.33;1.17;;;;;;;-2.01;82.74;98003.34;1792263;77;22426;-50
2022/01/30 03:59:08;;;;;;;2.60;1.10;;;;;;;-2.02;82.91;97997.20;1761705;78;21481;-50
2022/01/30 04:01:35;;;;;;;1.07;0.80;;;;;;;-2.02;83.10;97991.06;1775499;78;21554;-50
2022/01/30 04:04:01;;;;;;;1.40;0.60;;;;;;;-2.02;83.25;97984.02;1756785;78;21093;-50
2022/01/30 04:06:29;;;;;;;2.50;0.67;;;;;;;-2.02;83.43;97974.80;1770215;78;21057;-51
2022/01/30 04:08:56;;;;;;;0.93;0.60;;;;;;;-2.01;83.61;97969.94;1798068;77;21129;-51
2022/01/30 04:11:33;;;;;;;0.80;0.50;;;;;;;-2.00;83.73;97970.80;1800109;77;21677;-50
2022/01/30 04:14:18;;;;;;;4.80;0.50;;;;;;;-2.02;83.84;97951.06;1796336;77;21034;-50
2022/01/30 04:17:04;;;;;;;1.93;0.60;;;;;;;-2.00;84.03;97956.30;1794273;78;21013;-51
2022/01/30 04:19:49;;;;;;;1.17;0.47;;;;;;;-2.00;84.19;97935.20;1756425;80;21070;-52
2022/01/30 04:22:33;;;;;;;;;;;;;;;-2.01;84.34;97927.75;1795521;78;21124;-50
2022/01/30 04:25:05;;;;;;;1.37;0.40;;;;;;;-1.99;84.46;97929.03;1789499;78;20590;-50
2022/01/30 04:27:41;;;;;;;1.47;0.40;;;;;;;-2.02;84.58;97914.61;1799496;77;20902;-51
2022/01/30 04:30:16;;;;;;;1.60;0.40;;;;;;;-2.02;84.71;97922.52;1759293;78;21068;-50
2022/01/30 04:32:47;;;;;;;2.37;0.40;;;;;;;-2.02;84.83;97923.83;1749339;79;20895;-52
2022/01/30 04:35:24;;;;;;;2.63;0.40;;;;;;;-2.03;84.93;97900.55;1751937;79;21813;-51
2022/01/30 04:52:54;;;;;;;1.75;0.50;;;;;;;-2.08;85.23;97858.97;1748816;79;21070;-51
2022/01/30 04:55:50;;;;;;;0.53;0.37;;;;;;;-2.07;85.28;97849.29;1727200;80;21462;-51
2022/01/30 04:58:14;;;;;;;1.00;0.40;;;;;;;-2.09;85.20;97841.88;1745073;79;21100;-51
2022/01/30 05:05:58;;;;;;;2.40;0.60;;;;;;;-2.17;85.17;97830.68;1763128;78;20941;-51
2022/01/30 05:08:18;;;;;;;1.27;0.60;;;;;;;-2.19;85.19;97828.53;1714552;78;21030;-52
2022/01/30 05:10:50;;;;;;;1.60;0.40;;;;;;;-2.21;85.21;97822.47;1750685;78;20990;-52
2022/01/30 05:13:31;;;;;;;0.83;0.50;;;;;;;-2.23;85.23;97809.77;1685948;83;21072;-52
2022/01/30 05:15:59;;;;;;;1.63;1.17;;;;;;;-2.23;85.29;97814.59;1759902;78;22225;-52
2022/01/30 05:18:39;;;;;;;4.17;0.90;;;;;;;-2.25;85.28;97800.59;1757960;78;20941;-51
2022/01/30 05:21:21;;;;;;;2.10;1.03;;;;;;;-2.28;85.30;97795.39;1769051;78;21037;-52
2022/01/30 05:23:50;;;;;;;4.90;1.57;;;;;;;-2.28;85.35;97790.13;1756199;78;21053;-51
2022/01/30 05:26:22;;;;;;;3.70;1.00;;;;;;;-2.27;85.37;97781.31;1752830;78;21092;-52
2022/01/30 05:28:56;;;;;;;1.77;1.13;;;;;;;-2.27;85.38;97765.50;1757710;78;21161;-51
2022/01/30 05:31:25;;;;;;;2.03;0.87;;;;;;;-2.29;85.42;97767.31;1771209;78;21074;-50
2022/01/30 05:34:10;;;;;;;1.20;0.80;;;;;;;-2.30;85.52;97760.34;1767701;80;21512;-51
2022/01/30 05:36:47;;;;;;;2.43;0.60;;;;;;;-2.32;85.77;97765.65;1744952;80;21048;-50
2022/01/30 05:39:34;;;;;;;1.37;0.80;;;;;;;-2.34;85.94;97753.42;1766934;79;21094;-50
2022/01/30 05:42:23;;;;;;;0.90;0.60;;;;;;;-2.33;86.15;97757.78;1684037;84;21161;-50
2022/01/30 05:45:17;;;;;;;1.07;0.60;;;;;;;-2.33;86.24;97737.56;1685571;84;21084;-50
2022/01/30 05:48:03;;;;;;;2.50;0.50;;;;;;;-2.33;86.33;97753.83;1736212;80;21052;-50
2022/01/30 05:50:35;;;;;;;1.20;0.40;;;;;;;-2.34;86.39;97742.42;1762421;79;21080;-50
2022/01/30 05:53:13;;;;;;;0.93;0.57;;;;;;;-2.30;86.46;97740.58;1761488;80;21034;-50
2022/01/30 05:55:42;;;;;;;4.10;0.60;;;;;;;-2.27;86.48;97743.55;1759975;80;21049;-51
2022/01/30 05:58:09;;;;;;;1.50;0.80;;;;;;;-2.26;86.47;97726.84;1761427;80;21084;-50
2022/01/30 06:00:37;;;;;;;1.63;0.80;;;;;;;-2.25;86.46;97728.57;1759452;80;21096;-51
2022/01/30 06:03:06;;;;;;;1.00;0.70;;;;;;;-2.26;86.46;97727.70;1760424;80;21044;-50
2022/01/30 06:05:32;;;;;;;2.13;0.60;;;;;;;-2.26;86.50;97734.74;1761409;80;21546;-50
2022/01/30 06:08:09;;;;;;;3.33;0.70;;;;;;;-2.27;86.58;97730.37;1762290;80;21645;-50
2022/01/30 06:10:28;;;;;;;1.33;1.00;;;;;;;-2.26;86.72;97713.66;1764873;80;20922;-50
2022/01/30 06:12:54;;;;;;;2.90;0.70;;;;;;;-2.24;86.79;97703.49;1766470;80;21009;-50
2022/01/30 06:15:21;;;;;;;1.43;0.57;;;;;;;-2.24;86.81;97707.45;1765082;80;20941;-50
2022/01/30 06:17:49;;;;;;;1.53;0.70;;;;;;;-2.23;86.91;97709.63;1760478;80;20965;-50
2022/01/30 06:20:33;;;;;;;1.00;0.50;;;;;;;-2.20;86.98;97717.42;1765146;80;21254;-51
2022/01/30 06:23:08;;;;;;;1.82;0.65;;;;;;;-2.18;87.06;97709.89;1762692;80;20945;-51
2022/01/30 06:25:49;;;;;;;3.40;0.70;;;;;;;-2.14;87.13;97707.59;1764320;80;20936;-50
2022/01/30 06:28:33;;;;;;;0.87;0.60;;;;;;;-2.14;87.09;97683.00;1764649;80;20969;-50
2022/01/30 06:31:07;;;;;;;1.42;0.50;;;;;;;-2.15;87.12;97694.00;1736326;80;21523;-51
2022/01/30 06:33:43;;;;;;;0.90;0.50;;;;;;;-2.12;87.20;97694.33;1781515;78;21043;-51
2022/01/30 06:36:27;;;;;;;2.67;0.70;;;;;;;-2.10;87.29;97670.98;1776900;78;20911;-50
2022/01/30 06:39:12;;;;;;;1.42;0.70;;;;;;;-2.07;87.30;97676.17;1814723;77;20923;-52
2022/01/30 06:41:46;;;;;;;1.82;0.70;;;;;;;-2.04;87.35;97681.81;1809517;77;20864;-51
2022/01/30 06:44:32;;;;;;;1.40;0.53;;;;;;;-2.00;87.43;97681.66;1804457;77;21471;-50
2022/01/30 06:47:16;;;;;;;2.00;0.60;;;;;;;-1.96;87.40;97662.66;1803167;77;21512;-50
2022/01/30 06:49:50;;;;;;;1.00;0.50;;;;;;;-1.93;87.44;97671.77;1803910;78;21371;-51
2022/01/30 06:52:19;;;;;;;1.13;0.50;;;;;;;-1.89;87.46;97650.13;1766127;78;21108;-52
2022/01/30 06:55:04;;;;;;;1.05;0.60;;;;;;;-1.87;87.46;97659.70;1803977;78;23305;-51
2022/01/30 06:57:50;;;;;;;1.73;0.60;;;;;;;-1.82;87.54;97647.25;1784278;78;21038;-52
2022/01/30 07:00:35;;;;;;;;;;;;;;;-1.76;87.51;97649.67;1804137;78;21368;-51
2022/01/30 07:03:20;;;;;;;0.68;0.40;;;;;;;-1.73;87.50;97643.00;1804660;78;20179;-51
2022/01/30 07:06:03;;;;;;;1.20;0.50;;;;;;;-1.69;87.51;97645.92;1675825;84;21245;-51
2022/01/30 07:08:31;;;;;;;0.90;0.40;;;;;;;-1.64;87.58;97641.38;1773346;77;21280;-51
2022/01/30 07:10:58;;;;;;;0.83;0.47;;;;;;;-1.58;87.58;97633.25;1772373;79;21620;-50
2022/01/30 07:13:25;;;;;;;0.83;0.50;;;;;;;-1.52;87.52;97626.89;1804622;78;21104;-51
2022/01/30 07:15:51;;;;;;;0.70;0.50;;;;;;;-1.47;87.48;97618.38;1806800;77;21310;-50
2022/01/30 07:18:17;;;;;;;1.63;0.50;;;;;;;-1.43;87.46;97618.66;1803032;77;21567;-52
2022/01/30 07:20:44;;;;;;;1.30;0.50;;;;;;;-1.37;87.46;97617.16;1777389;78;21448;-52
2022/01/30 07:23:10;;;;;;;0.90;0.50;;;;;;;-1.31;87.43;97612.97;1801049;78;21405;-52
2022/01/30 07:25:37;;;;;;;0.97;0.60;;;;;;;-1.25;87.41;97605.28;1804926;77;21121;-51
2022/01/30 07:28:03;;;;;;;0.90;0.50;;;;;;;-1.20;87.38;97602.05;1800181;77;21088;-51
2022/01/30 07:30:30;;;;;;;0.80;0.50;;;;;;;-1.13;87.35;97600.05;1804829;77;21098;-51
2022/01/30 07:32:56;;;;;;;1.37;0.50;;;;;;;-1.06;87.30;97602.41;1791870;78;21045;-50
2022/01/30 07:35:23;;;;;;;1.73;0.60;;;;;;;-0.99;87.33;97595.11;1778483;80;21104;-50
2022/01/30 07:37:50;;;;;;;1.00;0.60;;;;;;;-0.91;87.33;97602.30;1791696;78;21184;-51
2022/01/30 07:40:16;;;;;;;0.97;0.60;;;;;;;-0.84;87.29;97590.13;1793411;77;21034;-51
2022/01/30 07:42:42;;;;;;;0.83;0.60;;;;;;;-0.77;87.18;97585.01;1792233;78;21048;-50
2022/01/30 07:45:11;;;;;;;1.90;0.57;;;;;;;-0.70;87.02;97587.44;1797217;78;21034;-51
2022/01/30 07:47:37;;;;;;;0.73;0.57;;;;;;;-0.66;86.97;97589.03;1797370;77;21077;-49
2022/01/30 07:50:04;;;;;;;1.33;0.70;;;;;;;-0.62;86.96;97586.69;1793656;77;21135;-49
2022/01/30 07:52:31;;;;;;;1.17;0.70;;;;;;;-0.58;86.78;97583.00;1797041;77;21022;-49
2022/01/30 07:54:57;;;;;;;1.93;0.70;;;;;;;-0.56;86.67;97584.67;1799104;77;20930;-51
2022/01/30 07:57:24;;;;;;;0.87;0.67;;;;;;;-0.49;86.60;97594.54;1793494;77;21092;-51
2022/01/30 07:59:50;;;;;;;0.77;0.50;;;;;;;-0.46;86.58;97583.41;1752338;79;21588;-50
2022/01/30 08:02:16;;;;;;;1.37;0.70;;;;;;;-0.39;86.59;97556.27;1777707;78;21768;-51
2022/01/30 08:04:43;;;;;;;1.20;0.60;;;;;;;-0.34;86.54;97568.83;1772283;78;21642;-50
2022/01/30 08:07:09;;;;;;;1.50;0.70;;;;;;;-0.32;86.53;97584.63;1774724;78;21109;-51
2022/01/30 08:09:36;;;;;;;0.70;0.60;;;;;;;-0.28;86.41;97573.89;1775327;78;21094;-50
2022/01/30 08:12:05;;;;;;;1.77;0.63;;;;;;;-0.24;86.38;97570.19;1775220;78;21025;-50
2022/01/30 08:14:32;;;;;;;1.03;0.63;;;;;;;-0.20;86.37;97573.12;1773253;78;21479;-50
2022/01/30 08:16:58;;;;;;;2.27;0.80;;;;;;;-0.16;86.37;97565.91;1776957;78;20970;-50
2022/01/30 08:19:25;;;;;;;1.03;0.60;;;;;;;-0.14;86.37;97565.40;1776397;78;21089;-50
2022/01/30 08:21:52;;;;;;;0.73;0.57;;;;;;;-0.08;86.41;97566.00;1776666;78;21543;-50
2022/01/30 08:24:19;;;;;;;1.40;0.60;;;;;;;-0.03;86.39;97564.52;1772342;78;21476;-51
2022/01/30 08:26:46;;;;;;;0.83;0.67;;;;;;;0.01;86.39;97559.48;1779294;78;21864;-51
2022/01/30 08:29:12;;;;;;;0.80;0.60;;;;;;;0.07;86.33;97557.06;1784803;78;21480;-51
2022/01/30 08:31:39;;;;;;;0.87;0.50;;;;;;;0.14;86.37;97565.14;1794287;78;21006;-52
2022/01/30 08:34:05;;;;;;;1.93;0.70;;;;;;;0.19;86.36;97538.02;1804308;77;22649;-50
2022/01/30 08:36:32;;;;;;;1.00;0.60;;;;;;;0.24;86.37;97548.83;1802857;77;22163;-50
2022/01/30 08:38:58;;;;;;;0.97;0.43;;;;;;;0.27;86.48;97543.84;1780740;78;21225;-51
2022/01/30 08:41:25;;;;;;;1.10;0.60;;;;;;;0.29;86.40;97537.58;1801229;78;21041;-50
2022/01/30 08:43:51;;;;;;;0.97;0.50;;;;;;;0.34;86.34;97540.05;1800068;77;21065;-51
2022/01/30 08:46:20;;;;;;;1.07;0.50;;;;;;;0.40;86.35;97534.94;1804222;77;21109;-52
2022/01/30 08:48:46;;;;;;;1.10;0.60;;;;;;;0.47;86.39;97541.23;1804379;77;21018;-52
2022/01/30 08:51:12;;;;;;;1.43;0.60;;;;;;;0.57;86.47;97524.48;1798492;78;21227;-52
2022/01/30 08:53:39;;;;;;;0.90;0.43;;;;;;;0.63;86.37;97521.09;1801787;77;21052;-52
2022/01/30 08:56:05;;;;;;;1.47;0.50;;;;;;;0.68;86.28;97512.48;1801828;77;21056;-52
2022/01/30 08:58:33;;;;;;;1.47;0.77;;;;;;;0.75;86.18;97512.62;1805616;77;21319;-52
2022/01/30 09:00:59;;;;;;;1.40;0.70;;;;;;;0.82;86.12;97510.56;1773225;78;20934;-52
2022/01/30 09:03:25;;;;;;;0.70;0.43;;;;;;;0.89;86.05;97506.70;1806288;77;21109;-52
2022/01/30 09:05:52;;;;;;;1.20;0.50;;;;;;;1.00;86.00;97508.41;1804843;77;21088;-50
2022/01/30 09:08:18;;;;;;;2.27;0.50;;;;;;;1.11;86.17;97506.10;1799545;77;21100;-52
2022/01/30 09:10:44;;;;;;;0.70;0.40;;;;;;;1.24;86.06;97503.76;1803735;77;21033;-51
2022/01/30 09:13:12;;;;;;;0.80;0.40;;;;;;;1.34;85.95;97498.89;1780617;78;21064;-52
2022/01/30 09:15:41;;;;;;;6.93;1.40;;;;;;;1.46;85.84;97495.17;1780467;78;21130;-53
2022/01/30 09:18:09;;;;;;;0.80;0.50;;;;;;;1.57;85.63;97501.77;1806441;77;21050;-53
2022/01/30 09:20:40;;;;;;;0.70;0.40;;;;;;;1.68;85.46;97496.81;1800584;77;21029;-53
2022/01/30 09:23:07;;;;;;;1.10;0.40;;;;;;;1.79;85.33;97495.34;1806655;77;21017;-52
2022/01/30 09:25:33;;;;;;;1.23;0.43;;;;;;;1.89;85.16;97490.44;1804495;77;21027;-52
2022/01/30 09:28:00;;;;;;;0.73;0.50;;;;;;;2.01;84.86;97488.52;1807735;77;21134;-53
2022/01/30 09:30:26;;;;;;;0.70;0.40;;;;;;;2.11;84.72;97483.16;1809826;77;21047;-53
2022/01/30 09:32:52;;;;;;;0.97;0.40;;;;;;;2.23;84.50;97485.63;1805077;77;21030;-53
2022/01/30 09:35:19;;;;;;;0.67;0.30;;;;;;;2.35;84.33;97484.16;1803577;78;21060;-52
2022/01/30 09:37:45;;;;;;;0.87;0.30;;;;;;;2.48;84.01;97482.11;1800456;78;21468;-53
2022/01/30 09:40:13;;;;;;;0.80;0.37;;;;;;;2.59;83.92;97477.11;1786500;78;21524;-53
2022/01/30 09:42:44;;;;;;;0.80;0.40;;;;;;;2.70;83.20;97482.33;1801038;78;20989;-52
2022/01/30 09:45:11;;;;;;;1.10;0.40;;;;;;;2.75;82.77;97475.83;1800783;78;21018;-53
2022/01/30 09:47:39;;;;;;;0.67;0.40;;;;;;;2.81;82.45;97481.27;1792125;78;21011;-53
2022/01/30 09:50:07;;;;;;;2.30;0.40;;;;;;;2.85;82.27;97473.55;1807919;78;20918;-54
2022/01/30 09:52:33;;;;;;;0.50;0.30;;;;;;;2.88;81.77;97471.59;1811038;77;21108;-53
2022/01/30 09:54:59;;;;;;;2.70;0.50;;;;;;;2.91;81.73;97468.75;1805175;77;20925;-53
2022/01/30 09:57:26;;;;;;;0.60;0.30;;;;;;;2.95;81.40;97468.98;1806605;77;20939;-54
2022/01/30 09:59:55;;;;;;;0.70;0.33;;;;;;;2.95;81.12;97472.98;1806965;77;20878;-54
2022/01/30 10:02:25;;;;;;;1.20;0.30;;;;;;;2.97;80.87;97471.57;1786917;78;21000;-54
2022/01/30 10:04:49;;;;;;;1.27;0.30;;;;;;;2.97;80.68;97479.08;1806619;77;22137;-53
2022/01/30 10:07:19;;;;;;;2.30;0.40;;;;;;;2.97;80.41;97479.08;1805377;78;20878;-54
2022/01/30 10:09:46;;;;;;;0.60;0.30;;;;;;;2.95;80.26;97469.45;1810149;77;20910;-53
2022/01/30 10:12:19;;;;;;;1.33;0.30;;;;;;;2.93;80.15;97469.53;1806866;77;20955;-54
2022/01/30 10:15:03;;;;;;;1.40;0.30;;;;;;;2.92;80.07;97468.28;1792466;78;21022;-53
2022/01/30 10:17:43;;;;;;;1.02;0.25;;;;;;;2.92;79.82;97466.48;1789545;78;21127;-51
2022/01/30 10:20:18;;;;;;;0.67;0.20;;;;;;;2.93;79.76;97469.53;1798277;78;21368;-52
2022/01/30 10:22:58;;;;;;;0.80;0.30;;;;;;;2.95;79.81;97463.67;1805569;77;20983;-52
2022/01/30 10:25:31;;;;;;;0.90;0.40;;;;;;;2.97;79.60;97462.27;1803612;78;21564;-52
2022/01/30 10:28:19;;;;;;;0.80;0.27;;;;;;;2.98;79.31;97467.47;1800108;78;21031;-51
2022/01/30 10:30:56;;;;;;;0.57;0.30;;;;;;;2.96;79.33;97460.08;1804030;77;21125;-52
2022/01/30 10:33:45;;;;;;;2.90;0.40;;;;;;;2.97;79.38;97461.80;1771604;78;20904;-52
2022/01/30 10:36:24;;;;;;;0.60;0.20;;;;;;;3.00;79.27;97452.78;1799111;78;21045;-52
2022/01/30 10:39:04;;;;;;;1.73;0.30;;;;;;;3.03;79.18;97449.97;1774490;79;21719;-52
2022/01/30 10:41:41;;;;;;;0.93;0.30;;;;;;;3.07;79.11;97447.98;1797713;78;21147;-52
2022/01/30 10:44:08;;;;;;;2.43;0.30;;;;;;;3.09;78.99;97450.09;1792998;78;20999;-52
2022/01/30 10:46:42;;;;;;;5.17;0.30;;;;;;;3.10;78.87;97442.05;1792506;78;21328;-52
2022/01/30 10:49:19;;;;;;;2.43;0.50;;;;;;;3.12;78.89;97440.16;1795963;77;20951;-52
2022/01/30 10:51:56;;;;;;;1.33;0.30;;;;;;;3.16;78.77;97431.53;1800253;77;20979;-53
2022/01/30 10:54:26;;;;;;;0.60;0.20;;;;;;;3.20;78.46;97446.38;1798485;78;20883;-52
2022/01/30 10:57:10;;;;;;;1.67;1.03;;;;;;;3.24;78.43;97433.29;1794179;77;21616;-52
2022/01/30 10:59:42;;;;;;;3.72;0.75;;;;;;;3.26;78.24;97424.30;1793344;78;21001;-54
2022/01/30 11:02:16;;;;;;;4.87;0.50;;;;;;;3.34;78.20;97414.56;1775929;78;21055;-54
2022/01/30 11:04:44;;;;;;;2.37;0.50;;;;;;;3.40;78.03;97419.05;1793504;78;21005;-53
2022/01/30 11:07:10;;;;;;;1.00;0.40;;;;;;;3.48;77.88;97417.31;1792778;78;21049;-54
2022/01/30 11:09:42;;;;;;;2.20;0.60;;;;;;;3.56;77.52;97419.06;1794852;78;21131;-54
2022/01/30 11:12:11;;;;;;;4.97;0.50;;;;;;;3.59;77.39;97414.88;1790150;79;21491;-53
2022/01/30 11:14:53;;;;;;;2.33;0.50;;;;;;;3.63;77.15;97412.91;1768721;78;21097;-53
2022/01/30 11:17:09;;;;;;;2.47;0.40;;;;;;;3.67;77.10;97419.75;1765736;78;21503;-53
2022/01/30 11:19:39;;;;;;;1.50;0.50;;;;;;;3.72;76.82;97418.56;1767089;78;21511;-52
2022/01/30 11:22:09;;;;;;;4.97;1.03;;;;;;;3.76;76.61;97411.24;1771258;78;21130;-53
2022/01/30 11:24:52;;;;;;;1.40;0.50;;;;;;;3.78;76.44;97411.55;1764621;78;21049;-52
2022/01/30 11:27:21;;;;;;;5.17;0.40;;;;;;;3.80;76.27;97408.33;1759891;78;21108;-50
2022/01/30 11:29:49;;;;;;;3.03;0.70;;;;;;;3.83;76.04;97412.59;1765603;78;21828;-51
2022/01/30 11:32:16;;;;;;;2.10;0.40;;;;;;;3.85;75.90;97408.52;1766777;78;20986;-52
2022/01/30 11:34:43;;;;;;;2.13;0.70;;;;;;;3.85;75.55;97400.54;1755292;80;21137;-52
2022/01/30 11:37:12;;;;;;;1.90;0.60;;;;;;;3.85;75.61;97403.20;1757133;80;20982;-50
2022/01/30 11:39:44;;;;;;;3.77;0.60;;;;;;;3.85;75.47;97402.73;1758066;80;22467;-51
2022/01/30 11:42:14;;;;;;;2.50;0.70;;;;;;;3.83;75.31;97395.30;1752579;80;21067;-52
2022/01/30 11:47:52;;;;;;;1.47;0.40;;;;;;;3.85;75.19;97385.91;1791680;79;23028;-53
2022/01/30 11:50:28;;;;;;;1.40;0.50;;;;;;;3.86;75.28;97392.95;1774446;80;21057;-51
2022/01/30 11:53:03;;;;;;;1.40;0.50;;;;;;;3.89;74.84;97392.77;1779702;80;21138;-54
2022/01/30 11:56:00;;;;;;;1.83;0.57;;;;;;;3.91;74.84;97385.09;1772661;80;20997;-52
2022/01/30 11:58:35;;;;;;;;;;;;;;;3.95;74.74;97379.95;1755819;80;21000;-52
2022/01/30 12:01:04;;;;;;;3.52;0.60;;;;;;;3.98;74.62;97373.13;1753548;80;20178;-53
2022/01/30 12:03:35;;;;;;;4.17;1.00;;;;;;;3.97;74.53;97370.08;1758031;80;21013;-51
2022/01/30 12:06:25;;;;;;;2.90;0.70;;;;;;;3.94;74.39;97376.91;1761576;80;21219;-54
2022/01/30 12:08:53;;;;;;;1.63;0.60;;;;;;;3.92;74.28;97380.13;1754597;80;21017;-54
2022/01/30 12:11:43;;;;;;;2.23;0.50;;;;;;;3.91;74.33;97381.58;1755726;80;21025;-53
2022/01/30 12:14:43;;;;;;;3.27;0.70;;;;;;;3.91;74.10;97379.77;1752581;80;21053;-53
2022/01/30 12:17:12;;;;;;;2.43;0.60;;;;;;;3.85;74.00;97375.26;1753430;80;21068;-54
2022/01/30 12:19:45;;;;;;;4.47;0.60;;;;;;;3.82;74.20;97376.79;1713363;81;21730;-53
2022/01/30 12:22:20;;;;;;;2.70;0.70;;;;;;;3.78;74.04;97382.28;1707208;82;21042;-54
2022/01/30 12:24:54;;;;;;;2.90;0.50;;;;;;;3.72;74.19;97389.30;1687814;82;21109;-54
2022/01/30 12:27:20;;;;;;;4.83;0.70;;;;;;;3.67;74.36;97380.70;1690482;83;22002;-52
2022/01/30 12:29:52;;;;;;;4.20;1.47;;;;;;;3.62;74.69;97388.58;1655034;83;20915;-52
2022/01/30 12:32:27;;;;;;;2.43;0.50;;;;;;;3.57;74.96;97388.86;1689508;83;21043;-52
2022/01/30 12:35:03;;;;;;;1.97;0.60;;;;;;;3.55;75.37;97388.09;1689973;83;20909;-53
2022/01/30 12:37:34;;;;;;;3.53;0.50;;;;;;;3.54;75.56;97387.70;1690250;83;20909;-54